Time;durP1;ratioP1;P1;durP2;ratioP2;P2;SDS_P1;SDS_P2;PMS_P1;PMS_P2;Temp;Humidity;BMP_temperature;BMP_pressure;BME280_temperature;BME280_humidity;BME280_pressure;Samples;Min_cycle;Max_cycle;Signal;HPM_P1;HPM_P2
2022/06/30 00:01:20;;;;;;;;;;;19.60;99.90;;;;;;4940704;29;19922;-76
2022/06/30 00:03:51;;;;;;;;;;;19.60;99.90;;;;;;4959715;28;19923;-76
2022/06/30 00:06:23;;;;;;;;;;;19.50;99.90;;;;;;4964146;28;19929;-76
2022/06/30 00:08:50;;;;;;;;;;;19.60;99.90;;;;;;4942977;29;19927;-76
2022/06/30 00:11:22;;;;;;;;;;;19.50;99.90;;;;;;4964795;28;20016;-76
2022/06/30 00:13:53;;;;;;;;;;;19.50;99.90;;;;;;4968942;23;19922;-72
2022/06/30 00:16:25;;;;;;;;;;;19.40;99.90;;;;;;4940856;29;19927;-72
2022/06/30 00:18:56;;;;;;;;;;;19.30;99.90;;;;;;4960033;28;19923;-72
2022/06/30 00:21:28;;;;;;;;;;;19.30;99.90;;;;;;4945011;28;19926;-72
2022/06/30 00:23:59;;;;;;;;;;;19.30;99.90;;;;;;4938874;28;19923;-73
2022/06/30 00:26:31;;;;;;;;;;;19.40;99.90;;;;;;4944505;29;20314;-72
2022/06/30 00:29:04;;;;;;;;;;;19.30;99.90;;;;;;4925973;29;19963;-72
2022/06/30 00:31:36;;;;;;;;;;;19.30;99.90;;;;;;4959788;28;19922;-72
2022/06/30 00:34:07;;;;;;;;;;;19.20;99.90;;;;;;4943113;28;19922;-72
2022/06/30 00:36:39;;;;;;;;;;;19.10;99.90;;;;;;4945877;29;19929;-72
2022/06/30 00:39:11;;;;;;;;;;;19.00;99.90;;;;;;4949787;28;19926;-72
2022/06/30 00:41:43;;;;;;;;;;;19.00;99.90;;;;;;4947699;29;20379;-72
2022/06/30 00:44:14;;;;;;;;;;;18.90;99.90;;;;;;4951753;28;19992;-72
2022/06/30 00:46:46;;;;;;;;;;;18.80;99.90;;;;;;4941857;28;19933;-72
2022/06/30 00:49:19;;;;;;;;;;;18.80;99.90;;;;;;4950358;28;19927;-72
2022/06/30 00:51:51;;;;;;;;;;;18.70;99.90;;;;;;4949468;29;19922;-72
2022/06/30 00:54:23;;;;;;;;;;;18.60;99.90;;;;;;4926142;29;19923;-72
2022/06/30 00:56:57;;;;;;;;;;;18.50;99.90;;;;;;4945316;29;19946;-72
2022/06/30 00:59:29;;;;;;;;;;;18.40;99.90;;;;;;4946168;29;19927;-72
2022/06/30 01:02:01;;;;;;;;;;;18.40;99.90;;;;;;4951622;28;19923;-72
2022/06/30 01:04:33;;;;;;;;;;;18.40;99.90;;;;;;4935068;29;19923;-72
2022/06/30 01:07:05;;;;;;;;;;;18.30;99.90;;;;;;4959464;28;19923;-72
2022/06/30 01:12:42;;;;;;;;;;;18.30;99.90;;;;;;4947479;28;19923;-72
2022/06/30 01:15:15;;;;;;;;;;;18.40;99.90;;;;;;4928873;28;20010;-72
2022/06/30 01:17:48;;;;;;;;;;;18.40;99.90;;;;;;4944745;28;19922;-72
2022/06/30 01:20:24;;;;;;;;;;;18.30;99.90;;;;;;4943915;28;19928;-72
2022/06/30 01:22:56;;;;;;;;;;;18.30;99.90;;;;;;4942933;28;19923;-72
2022/06/30 01:25:28;;;;;;;;;;;18.20;99.90;;;;;;4934347;28;19923;-72
2022/06/30 01:28:00;;;;;;;;;;;18.10;99.90;;;;;;4941590;29;19929;-72
2022/06/30 01:30:32;;;;;;;;;;;18.10;99.90;;;;;;4939090;29;19922;-72
2022/06/30 01:32:58;;;;;;;;;;;18.00;99.90;;;;;;4948480;29;19927;-72
2022/06/30 01:35:30;;;;;;;;;;;18.00;99.90;;;;;;4953692;28;20298;-72
2022/06/30 01:38:02;;;;;;;;;;;17.90;99.90;;;;;;4948730;29;19922;-72
2022/06/30 01:40:35;;;;;;;;;;;18.00;99.90;;;;;;4946821;29;19926;-72
2022/06/30 01:43:11;;;;;;;;;;;18.00;99.90;;;;;;4941557;28;20024;-72
2022/06/30 01:45:43;;;;;;;;;;;18.10;99.90;;;;;;4942934;29;20306;-72
2022/06/30 01:48:09;;;;;;;;;;;18.10;99.90;;;;;;4961779;28;19926;-72
2022/06/30 01:50:41;;;;;;;;;;;18.10;99.90;;;;;;4928272;29;19926;-72
2022/06/30 01:53:13;;;;;;;;;;;18.00;99.90;;;;;;4934310;29;20017;-72
2022/06/30 01:55:44;;;;;;;;;;;18.00;99.90;;;;;;4949300;28;19927;-72
2022/06/30 01:58:16;;;;;;;;;;;17.90;99.90;;;;;;4944584;29;19922;-72
2022/06/30 02:00:47;;;;;;;;;;;17.90;99.90;;;;;;4947549;29;19927;-72
2022/06/30 02:03:19;;;;;;;;;;;17.90;99.90;;;;;;4944483;29;20405;-72
2022/06/30 02:05:51;;;;;;;;;;;17.90;99.90;;;;;;4929810;29;19926;-72
2022/06/30 02:08:22;;;;;;;;;;;17.90;99.90;;;;;;4943787;29;20263;-72
2022/06/30 02:10:54;;;;;;;;;;;17.90;99.90;;;;;;4945652;28;19926;-72
2022/06/30 02:13:26;;;;;;;;;;;18.00;99.90;;;;;;4933225;29;19928;-72
2022/06/30 02:15:58;;;;;;;;;;;18.00;99.90;;;;;;4933992;28;20263;-72
2022/06/30 02:18:29;;;;;;;;;;;18.10;99.90;;;;;;4940804;29;19929;-73
2022/06/30 02:21:01;;;;;;;;;;;18.10;99.90;;;;;;4943842;29;20425;-72
2022/06/30 02:23:32;;;;;;;;;;;18.00;99.90;;;;;;4952331;28;19922;-72
2022/06/30 02:26:04;;;;;;;;;;;17.90;99.90;;;;;;4933680;29;20383;-72
2022/06/30 02:28:36;;;;;;;;;;;17.80;99.90;;;;;;4939309;29;19929;-72
2022/06/30 02:31:07;;;;;;;;;;;17.70;99.90;;;;;;4950889;29;19926;-72
2022/06/30 02:33:34;;;;;;;;;;;17.70;99.90;;;;;;4938753;28;19926;-72
2022/06/30 02:36:06;;;;;;;;;;;17.60;99.90;;;;;;4933933;29;19931;-73
2022/06/30 02:38:38;;;;;;;;;;;17.60;99.90;;;;;;4942033;29;20456;-72
2022/06/30 02:41:10;;;;;;;;;;;17.60;99.90;;;;;;4946824;29;19922;-72
2022/06/30 02:43:36;;;;;;;;;;;17.50;99.90;;;;;;4943518;29;19926;-72
2022/06/30 02:46:08;;;;;;;;;;;17.40;99.90;;;;;;4936474;29;19922;-72
2022/06/30 02:48:39;;;;;;;;;;;17.40;99.90;;;;;;4940689;29;19929;-72
2022/06/30 02:51:11;;;;;;;;;;;17.40;99.90;;;;;;4941677;28;19923;-73
2022/06/30 02:53:43;;;;;;;;;;;17.40;99.90;;;;;;4950362;28;20033;-72
2022/06/30 02:56:14;;;;;;;;;;;17.30;99.90;;;;;;4922133;29;19948;-72
2022/06/30 02:58:47;;;;;;;;;;;17.30;99.90;;;;;;4929791;29;20397;-72
2022/06/30 03:01:19;;;;;;;;;;;17.30;99.90;;;;;;4939895;29;19923;-72
2022/06/30 03:03:46;;;;;;;;;;;17.30;99.90;;;;;;4957419;28;19928;-72
2022/06/30 03:06:18;;;;;;;;;;;17.30;99.90;;;;;;4953236;28;19961;-72
2022/06/30 03:08:49;;;;;;;;;;;17.10;99.90;;;;;;4944938;29;19922;-72
2022/06/30 03:11:21;;;;;;;;;;;17.10;99.90;;;;;;4941088;28;19923;-72
2022/06/30 03:13:53;;;;;;;;;;;17.10;99.90;;;;;;4939857;29;19922;-72
2022/06/30 03:16:25;;;;;;;;;;;17.10;99.90;;;;;;4938250;29;19999;-72
2022/06/30 03:18:56;;;;;;;;;;;17.10;99.90;;;;;;4936983;29;19958;-72
2022/06/30 03:21:28;;;;;;;;;;;17.00;99.90;;;;;;4942131;29;19927;-72
2022/06/30 03:24:00;;;;;;;;;;;17.00;99.90;;;;;;4946299;28;19929;-72
2022/06/30 03:26:31;;;;;;;;;;;17.10;99.90;;;;;;4937686;29;19937;-72
2022/06/30 03:29:04;;;;;;;;;;;17.10;99.90;;;;;;4928080;29;20283;-72
2022/06/30 03:31:31;;;;;;;;;;;17.10;99.90;;;;;;4946147;29;20379;-72
2022/06/30 03:34:03;;;;;;;;;;;17.20;99.90;;;;;;4941649;28;19980;-72
2022/06/30 03:36:34;;;;;;;;;;;17.20;99.90;;;;;;4953281;28;20025;-72
2022/06/30 03:39:06;;;;;;;;;;;17.10;99.90;;;;;;4938169;29;19922;-72
2022/06/30 03:41:38;;;;;;;;;;;17.20;99.90;;;;;;4926742;29;20106;-72
2022/06/30 03:44:09;;;;;;;;;;;17.10;99.90;;;;;;4938216;29;20239;-72
2022/06/30 03:46:41;;;;;;;;;;;17.10;99.90;;;;;;4939482;28;19973;-72
2022/06/30 03:49:13;;;;;;;;;;;17.20;99.90;;;;;;4959896;28;20350;-72
2022/06/30 03:51:39;;;;;;;;;;;17.20;99.90;;;;;;4944257;29;19930;-72
2022/06/30 03:54:11;;;;;;;;;;;17.20;99.90;;;;;;4947117;28;19927;-73
2022/06/30 03:56:42;;;;;;;;;;;17.30;99.90;;;;;;4934489;29;19927;-72
2022/06/30 03:59:14;;;;;;;;;;;17.30;99.90;;;;;;4937925;29;20383;-72
2022/06/30 04:01:41;;;;;;;;;;;17.30;99.90;;;;;;4939401;29;19923;-73
2022/06/30 04:04:07;;;;;;;;;;;17.40;99.90;;;;;;4942403;29;19922;-72
2022/06/30 04:06:39;;;;;;;;;;;17.30;99.90;;;;;;4937818;29;19922;-73
2022/06/30 04:09:11;;;;;;;;;;;17.30;99.90;;;;;;4943105;29;19995;-73
2022/06/30 04:11:42;;;;;;;;;;;17.20;99.90;;;;;;4944374;29;19930;-72
2022/06/30 04:14:14;;;;;;;;;;;17.30;99.90;;;;;;4947324;28;19927;-73
2022/06/30 04:16:40;;;;;;;;;;;17.20;99.90;;;;;;4931369;29;19970;-72
2022/06/30 04:19:07;;;;;;;;;;;17.20;99.90;;;;;;4941527;29;19930;-73
2022/06/30 04:21:39;;;;;;;;;;;17.20;99.90;;;;;;4943230;29;19930;-73
2022/06/30 04:24:10;;;;;;;;;;;17.30;99.90;;;;;;4942273;28;19922;-72
2022/06/30 04:26:42;;;;;;;;;;;17.30;99.90;;;;;;4950041;29;19929;-72
2022/06/30 04:29:13;;;;;;;;;;;17.40;99.90;;;;;;4951418;29;19927;-72
2022/06/30 04:34:30;;;;;;;;;;;17.30;99.90;;;;;;4930130;28;19950;-72
2022/06/30 04:37:02;;;;;;;;;;;17.30;99.90;;;;;;4952309;28;19938;-72
2022/06/30 04:39:34;;;;;;;;;;;17.30;99.90;;;;;;4924488;29;19923;-72
2022/06/30 04:42:00;;;;;;;;;;;17.30;99.90;;;;;;4946286;29;20401;-72
2022/06/30 04:44:32;;;;;;;;;;;17.40;99.90;;;;;;4943034;28;19927;-72
2022/06/30 04:47:04;;;;;;;;;;;17.40;99.90;;;;;;4930644;29;20520;-72
2022/06/30 04:49:35;;;;;;;;;;;17.40;99.90;;;;;;4939131;28;19950;-72
2022/06/30 04:52:07;;;;;;;;;;;17.40;99.90;;;;;;4938193;29;19977;-72
2022/06/30 04:54:33;;;;;;;;;;;17.40;99.90;;;;;;4940509;29;19923;-72
2022/06/30 04:57:05;;;;;;;;;;;17.40;99.90;;;;;;4945194;29;20322;-72
2022/06/30 04:59:37;;;;;;;;;;;17.50;99.90;;;;;;4945253;29;20025;-72
2022/06/30 05:02:08;;;;;;;;;;;17.50;99.90;;;;;;4952017;29;19931;-73
2022/06/30 05:04:42;;;;;;;;;;;17.60;99.90;;;;;;4939182;29;20302;-72
2022/06/30 05:07:16;;;;;;;;;;;17.60;99.90;;;;;;4935347;28;19962;-72
2022/06/30 05:09:43;;;;;;;;;;;17.60;99.90;;;;;;4937907;29;19946;-73
2022/06/30 05:12:14;;;;;;;;;;;17.70;99.90;;;;;;4938268;29;19923;-72
2022/06/30 05:14:46;;;;;;;;;;;17.70;99.90;;;;;;4937720;29;19927;-72
2022/06/30 05:17:18;;;;;;;;;;;17.80;99.90;;;;;;4941642;29;20379;-72
2022/06/30 05:19:49;;;;;;;;;;;17.90;99.90;;;;;;4939276;29;19922;-72
2022/06/30 05:22:21;;;;;;;;;;;17.90;99.90;;;;;;4939410;29;19922;-72
2022/06/30 05:27:38;;;;;;;;;;;18.10;99.90;;;;;;4934432;29;20383;-72
2022/06/30 05:30:10;;;;;;;;;;;18.20;99.90;;;;;;4941641;29;19922;-72
2022/06/30 05:32:42;;;;;;;;;;;18.20;99.90;;;;;;4952760;28;19937;-72
2022/06/30 05:35:14;;;;;;;;;;;18.20;99.90;;;;;;4944139;28;19927;-72
2022/06/30 05:37:46;;;;;;;;;;;18.20;99.90;;;;;;4953433;28;19922;-73
2022/06/30 05:40:17;;;;;;;;;;;18.20;99.90;;;;;;4941442;29;19933;-72
2022/06/30 05:42:49;;;;;;;;;;;18.20;99.90;;;;;;4934790;29;19930;-72
2022/06/30 05:45:21;;;;;;;;;;;18.20;99.90;;;;;;4943987;28;19930;-72
2022/06/30 05:47:52;;;;;;;;;;;18.20;99.90;;;;;;4935212;29;19923;-73
2022/06/30 05:50:24;;;;;;;;;;;18.20;99.90;;;;;;4953792;28;20338;-73
2022/06/30 05:52:56;;;;;;;;;;;18.30;99.90;;;;;;4944269;28;19926;-73
2022/06/30 05:55:27;;;;;;;;;;;18.40;99.90;;;;;;4932621;29;19923;-72
2022/06/30 05:58:01;;;;;;;;;;;18.40;99.90;;;;;;4949761;28;20383;-72
2022/06/30 06:00:32;;;;;;;;;;;18.50;99.90;;;;;;4931904;29;19926;-72
2022/06/30 06:03:04;;;;;;;;;;;18.50;99.90;;;;;;4942187;29;19934;-72
2022/06/30 06:05:36;;;;;;;;;;;18.60;99.90;;;;;;4935381;28;19945;-72
2022/06/30 06:08:08;;;;;;;;;;;18.70;99.90;;;;;;4937778;29;20394;-73
2022/06/30 06:10:35;;;;;;;;;;;18.70;99.90;;;;;;4938733;29;19929;-73
2022/06/30 06:13:07;;;;;;;;;;;18.80;99.90;;;;;;4951247;28;20406;-72
2022/06/30 06:15:39;;;;;;;;;;;18.80;99.90;;;;;;4936149;29;20460;-72
2022/06/30 06:18:11;;;;;;;;;;;18.90;99.90;;;;;;4925458;29;19929;-72
2022/06/30 06:20:42;;;;;;;;;;;19.00;99.90;;;;;;4944349;29;19928;-72
2022/06/30 06:23:14;;;;;;;;;;;19.10;99.90;;;;;;4941341;28;19927;-73
2022/06/30 06:25:41;;;;;;;;;;;19.20;99.90;;;;;;4919014;29;19926;-72
2022/06/30 06:30:58;;;;;;;;;;;19.40;99.90;;;;;;4947542;28;19961;-72
2022/06/30 06:33:24;;;;;;;;;;;19.40;99.90;;;;;;4956893;28;19930;-73
2022/06/30 06:35:56;;;;;;;;;;;19.50;99.90;;;;;;4933134;29;19945;-72
2022/06/30 06:38:23;;;;;;;;;;;19.60;99.90;;;;;;4930221;29;19927;-72
2022/06/30 06:40:54;;;;;;;;;;;19.60;99.90;;;;;;4919360;29;19954;-72
2022/06/30 06:43:26;;;;;;;;;;;19.70;99.90;;;;;;4936282;29;19923;-72
2022/06/30 06:45:58;;;;;;;;;;;19.70;99.90;;;;;;4919666;29;19927;-72
2022/06/30 06:48:29;;;;;;;;;;;19.80;99.90;;;;;;4941858;29;19952;-72
2022/06/30 06:51:01;;;;;;;;;;;20.00;99.90;;;;;;4940095;29;19929;-72
2022/06/30 06:53:33;;;;;;;;;;;20.10;99.90;;;;;;4936441;28;19930;-72
2022/06/30 06:56:04;;;;;;;;;;;20.20;99.90;;;;;;4937246;29;19923;-72
2022/06/30 06:58:31;;;;;;;;;;;20.30;99.90;;;;;;4942020;29;20410;-72
2022/06/30 07:01:04;;;;;;;;;;;20.40;99.90;;;;;;4941631;29;19922;-72
2022/06/30 07:03:36;;;;;;;;;;;20.50;99.90;;;;;;4942538;29;20009;-72
2022/06/30 07:06:03;;;;;;;;;;;20.60;99.90;;;;;;4938826;29;19930;-72
2022/06/30 07:08:35;;;;;;;;;;;20.70;99.90;;;;;;4957691;28;19922;-73
2022/06/30 07:11:07;;;;;;;;;;;20.80;99.90;;;;;;4927490;28;19931;-73
2022/06/30 07:13:39;;;;;;;;;;;20.90;99.90;;;;;;4936790;29;20272;-74
2022/06/30 07:16:05;;;;;;;;;;;21.00;99.90;;;;;;4938720;29;19929;-72
2022/06/30 07:18:32;;;;;;;;;;;21.10;99.90;;;;;;4941319;29;19922;-72
2022/06/30 07:21:03;;;;;;;;;;;21.20;99.90;;;;;;4948058;29;19942;-73
2022/06/30 07:23:35;;;;;;;;;;;21.30;99.90;;;;;;4935987;28;19929;-72
2022/06/30 07:26:07;;;;;;;;;;;21.50;99.90;;;;;;4934597;29;19927;-72
2022/06/30 07:28:40;;;;;;;;;;;21.60;99.90;;;;;;4960542;28;19970;-72
2022/06/30 07:31:08;;;;;;;;;;;21.70;99.90;;;;;;4937320;28;20271;-72
2022/06/30 07:33:42;;;;;;;;;;;21.80;99.90;;;;;;4933413;29;19930;-72
2022/06/30 07:36:14;;;;;;;;;;;21.90;99.90;;;;;;4942106;28;19923;-72
2022/06/30 07:38:47;;;;;;;;;;;22.00;99.90;;;;;;4935906;29;19933;-72
2022/06/30 07:41:14;;;;;;;;;;;22.10;99.90;;;;;;4938244;28;20383;-72
2022/06/30 07:43:41;;;;;;;;;;;22.30;99.90;;;;;;4939554;29;19926;-72
2022/06/30 07:46:07;;;;;;;;;;;22.30;99.90;;;;;;4938329;29;20410;-72
2022/06/30 07:48:39;;;;;;;;;;;22.40;99.90;;;;;;4921074;29;19938;-72
2022/06/30 07:51:11;;;;;;;;;;;22.50;99.90;;;;;;4957139;28;19945;-72
2022/06/30 07:53:42;;;;;;;;;;;22.60;99.90;;;;;;4953742;28;19923;-72
2022/06/30 07:56:15;;;;;;;;;;;22.70;99.90;;;;;;4950836;28;19930;-72
2022/06/30 07:58:42;;;;;;;;;;;22.80;99.90;;;;;;4943207;29;19954;-72
2022/06/30 08:01:09;;;;;;;;;;;22.90;99.90;;;;;;4937399;28;19923;-72
2022/06/30 08:03:41;;;;;;;;;;;23.00;99.90;;;;;;4941385;28;19922;-72
2022/06/30 08:06:13;;;;;;;;;;;23.20;99.90;;;;;;4936757;29;19923;-72
2022/06/30 08:08:44;;;;;;;;;;;23.30;99.90;;;;;;4936911;29;19922;-72
2022/06/30 08:11:11;;;;;;;;;;;23.50;99.90;;;;;;4936696;28;20405;-72
2022/06/30 08:13:43;;;;;;;;;;;23.60;99.90;;;;;;4934437;29;19922;-73
2022/06/30 08:16:15;;;;;;;;;;;23.70;99.90;;;;;;4932962;29;20021;-72
2022/06/30 08:18:47;;;;;;;;;;;23.90;99.90;;;;;;4940101;29;20013;-72
2022/06/30 08:21:19;;;;;;;;;;;24.00;99.90;;;;;;4964569;28;20418;-72
2022/06/30 08:23:50;;;;;;;;;;;24.20;99.90;;;;;;4938773;29;20399;-72
2022/06/30 08:26:22;;;;;;;;;;;24.40;99.90;;;;;;4936186;28;19980;-73
2022/06/30 08:28:54;;;;;;;;;;;24.50;99.90;;;;;;4934172;29;20319;-72
2022/06/30 08:31:20;;;;;;;;;;;24.50;99.90;;;;;;4945124;29;19926;-73
2022/06/30 08:33:50;;;;;;;;;;;24.70;99.90;;;;;;4944117;29;19923;-72
2022/06/30 08:36:17;;;;;;;;;;;24.80;99.90;;;;;;4933757;29;19937;-73
2022/06/30 08:38:48;;;;;;;;;;;25.00;99.90;;;;;;4954498;28;19950;-73
2022/06/30 08:44:05;;;;;;;;;;;25.20;99.90;;;;;;4939561;29;20417;-72
2022/06/30 08:46:38;;;;;;;;;;;25.10;99.90;;;;;;4939203;29;19929;-72
2022/06/30 08:49:05;;;;;;;;;;;25.00;99.90;;;;;;4942526;28;19957;-72
2022/06/30 08:51:37;;;;;;;;;;;24.90;99.90;;;;;;4944263;29;19923;-72
2022/06/30 08:54:10;;;;;;;;;;;24.90;99.90;;;;;;4953981;28;19936;-72
2022/06/30 08:56:43;;;;;;;;;;;25.10;99.90;;;;;;4945806;28;20689;-73
2022/06/30 08:59:15;;;;;;;;;;;25.20;99.90;;;;;;4943417;29;19929;-72
2022/06/30 09:01:47;;;;;;;;;;;25.10;99.90;;;;;;4933375;29;20575;-72
2022/06/30 09:04:19;;;;;;;;;;;25.10;99.90;;;;;;4916988;29;19926;-72
2022/06/30 09:06:50;;;;;;;;;;;25.20;99.90;;;;;;4936988;29;19926;-72
2022/06/30 09:09:22;;;;;;;;;;;25.30;99.90;;;;;;4940065;29;19927;-72
2022/06/30 09:11:54;;;;;;;;;;;25.60;99.90;;;;;;4950809;28;19922;-72
2022/06/30 09:14:29;;;;;;;;;;;25.80;99.90;;;;;;4936099;28;20256;-73
2022/06/30 09:17:02;;;;;;;;;;;26.10;99.90;;;;;;4921860;29;19948;-73
2022/06/30 09:19:40;;;;;;;;;;;26.30;99.90;;;;;;4919311;29;20012;-72
2022/06/30 09:22:14;;;;;;;;;;;26.40;99.90;;;;;;4935242;29;19932;-72
2022/06/30 09:24:45;;;;;;;;;;;26.50;99.90;;;;;;4935385;29;19927;-73
2022/06/30 09:27:19;;;;;;;;;;;26.50;99.90;;;;;;4934840;29;19929;-72
2022/06/30 09:29:55;;;;;;;;;;;26.40;99.90;;;;;;4949933;29;19922;-72
2022/06/30 09:32:27;;;;;;;;;;;26.40;99.90;;;;;;4952657;29;20403;-72
2022/06/30 09:35:09;;;;;;;;;;;26.50;99.90;;;;;;4946896;28;19946;-71
2022/06/30 09:37:41;;;;;;;;;;;26.50;99.90;;;;;;4944194;29;19934;-72
2022/06/30 09:40:13;;;;;;;;;;;26.50;99.90;;;;;;4942135;28;20398;-73
2022/06/30 09:42:45;;;;;;;;;;;26.70;99.90;;;;;;4946127;29;20298;-73
2022/06/30 09:45:31;;;;;;;;;;;26.90;99.90;;;;;;4944429;28;19956;-72
2022/06/30 09:48:03;;;;;;;;;;;27.10;99.90;;;;;;4947791;29;19923;-73
2022/06/30 09:50:35;;;;;;;;;;;27.30;99.90;;;;;;4938076;29;19923;-72
2022/06/30 09:53:12;;;;;;;;;;;27.40;99.90;;;;;;4944754;28;19927;-72
2022/06/30 09:55:44;;;;;;;;;;;27.50;99.90;;;;;;4939372;29;19969;-73
2022/06/30 09:58:13;;;;;;;;;;;27.50;99.90;;;;;;4939106;29;19937;-73
2022/06/30 10:00:46;;;;;;;;;;;27.50;99.90;;;;;;4943682;29;20009;-72
2022/06/30 10:03:19;;;;;;;;;;;27.60;99.90;;;;;;4940329;28;19926;-72
2022/06/30 10:05:46;;;;;;;;;;;27.70;99.90;;;;;;4936733;29;19926;-72
2022/06/30 10:08:18;;;;;;;;;;;27.80;99.90;;;;;;4938162;29;19923;-73
2022/06/30 10:10:50;;;;;;;;;;;28.10;99.90;;;;;;4952271;29;19930;-73
2022/06/30 10:13:22;;;;;;;;;;;28.30;99.90;;;;;;4943345;29;20029;-72
2022/06/30 10:15:54;;;;;;;;;;;28.30;99.90;;;;;;4934158;28;20017;-72
2022/06/30 10:18:26;;;;;;;;;;;28.30;99.90;;;;;;4932794;29;20298;-73
2022/06/30 10:20:53;;;;;;;;;;;28.10;99.90;;;;;;4936341;29;19933;-72
2022/06/30 10:23:25;;;;;;;;;;;27.90;99.90;;;;;;4938290;29;19923;-73
2022/06/30 10:25:57;;;;;;;;;;;27.70;99.90;;;;;;4921705;29;20298;-73
2022/06/30 10:28:25;;;;;;;;;;;27.80;99.90;;;;;;4945501;29;19934;-72
2022/06/30 10:31:09;;;;;;;;;;;28.00;99.90;;;;;;4940772;29;19922;-73
2022/06/30 10:33:44;;;;;;;;;;;28.20;99.90;;;;;;4943286;29;20410;-73
2022/06/30 10:36:25;;;;;;;;;;;28.50;99.90;;;;;;4937964;29;20292;-72
2022/06/30 10:39:03;;;;;;;;;;;28.70;99.90;;;;;;4942722;29;19930;-72
2022/06/30 10:41:43;;;;;;;;;;;29.00;99.90;;;;;;4944075;29;20395;-72
2022/06/30 10:44:12;;;;;;;;;;;29.10;99.90;;;;;;4939456;29;19954;-72
2022/06/30 10:46:44;;;;;;;;;;;29.20;99.90;;;;;;4940382;29;19929;-72
2022/06/30 10:49:16;;;;;;;;;;;29.00;99.90;;;;;;4938924;29;20299;-72
2022/06/30 10:51:48;;;;;;;;;;;28.70;99.90;;;;;;4927694;29;19935;-73
2022/06/30 10:54:31;;;;;;;;;;;28.60;99.90;;;;;;4920983;29;20013;-74
2022/06/30 10:57:03;;;;;;;;;;;28.60;99.90;;;;;;4933322;29;19922;-72
2022/06/30 10:59:42;;;;;;;;;;;28.80;99.90;;;;;;4949643;28;20018;-72
2022/06/30 11:02:14;;;;;;;;;;;29.00;99.90;;;;;;4949307;28;19923;-72
2022/06/30 11:04:50;;;;;;;;;;;29.20;99.90;;;;;;4930862;28;20312;-73
2022/06/30 11:07:23;;;;;;;;;;;29.20;99.90;;;;;;4953136;28;19927;-72
2022/06/30 11:09:58;;;;;;;;;;;29.00;99.90;;;;;;4947922;29;20094;-73
2022/06/30 11:12:31;;;;;;;;;;;28.70;99.90;;;;;;4938675;29;19933;-72
2022/06/30 11:15:03;;;;;;;;;;;28.50;99.90;;;;;;4940004;28;20455;-72
2022/06/30 11:17:36;;;;;;;;;;;28.30;99.90;;;;;;4935410;29;20330;-72
2022/06/30 11:20:10;;;;;;;;;;;28.50;99.90;;;;;;4953035;28;19923;-72
2022/06/30 11:22:43;;;;;;;;;;;28.70;99.90;;;;;;4940501;29;19933;-72
2022/06/30 11:25:10;;;;;;;;;;;28.90;99.90;;;;;;4933779;28;19923;-72
2022/06/30 11:27:42;;;;;;;;;;;29.10;99.90;;;;;;4925914;29;19927;-72
2022/06/30 11:30:14;;;;;;;;;;;29.40;99.90;;;;;;4937692;29;19937;-72
2022/06/30 11:32:45;;;;;;;;;;;29.60;99.90;;;;;;4956424;28;20303;-72
2022/06/30 11:35:23;;;;;;;;;;;29.90;99.90;;;;;;4928543;28;19930;-72
2022/06/30 11:37:55;;;;;;;;;;;30.10;99.60;;;;;;4933748;29;19938;-72
2022/06/30 11:40:30;;;;;;;;;;;30.10;99.10;;;;;;4947362;28;19974;-72
2022/06/30 11:42:56;;;;;;;;;;;30.10;98.90;;;;;;4936237;29;19929;-72
2022/06/30 11:45:29;;;;;;;;;;;30.10;99.00;;;;;;4928556;29;20017;-73
2022/06/30 11:48:03;;;;;;;;;;;30.10;98.30;;;;;;4934000;29;20021;-73
2022/06/30 11:50:35;;;;;;;;;;;30.10;98.00;;;;;;4919847;29;20530;-72
2022/06/30 11:53:07;;;;;;;;;;;30.20;98.20;;;;;;4924530;29;19926;-72
2022/06/30 11:55:39;;;;;;;;;;;30.40;98.00;;;;;;4939404;28;19923;-73
2022/06/30 11:58:10;;;;;;;;;;;30.60;98.00;;;;;;4935606;29;19926;-72
2022/06/30 12:00:37;;;;;;;;;;;30.70;96.70;;;;;;4938383;29;19923;-73
2022/06/30 12:03:12;;;;;;;;;;;30.70;96.90;;;;;;4935819;29;19923;-72
2022/06/30 12:05:39;;;;;;;;;;;30.80;94.70;;;;;;4933552;28;19952;-72
2022/06/30 12:08:11;;;;;;;;;;;30.90;95.50;;;;;;4937160;29;19930;-72
2022/06/30 12:10:44;;;;;;;;;;;31.10;95.40;;;;;;4937634;29;20013;-72
2022/06/30 12:13:16;;;;;;;;;;;31.30;95.50;;;;;;4955079;28;19927;-72
2022/06/30 12:15:50;;;;;;;;;;;31.40;94.50;;;;;;4928204;29;20029;-72
2022/06/30 12:18:22;;;;;;;;;;;31.50;94.40;;;;;;4954723;28;19927;-72
2022/06/30 12:20:55;;;;;;;;;;;31.60;93.90;;;;;;4936329;29;19927;-72
2022/06/30 12:23:22;;;;;;;;;;;31.40;93.90;;;;;;4956193;28;19961;-72
2022/06/30 12:25:49;;;;;;;;;;;31.20;93.60;;;;;;4952222;28;19931;-72
2022/06/30 12:28:22;;;;;;;;;;;31.00;94.00;;;;;;4958510;28;19929;-72
2022/06/30 12:30:54;;;;;;;;;;;31.10;93.30;;;;;;4935947;28;19949;-72
2022/06/30 12:33:36;;;;;;;;;;;31.20;93.10;;;;;;4939191;29;19933;-72
2022/06/30 12:36:08;;;;;;;;;;;31.30;92.90;;;;;;4932970;29;19927;-72
2022/06/30 12:38:35;;;;;;;;;;;31.40;93.10;;;;;;4940313;29;20484;-73
2022/06/30 12:41:13;;;;;;;;;;;31.60;93.60;;;;;;4941248;29;19930;-72
2022/06/30 12:43:45;;;;;;;;;;;31.70;92.20;;;;;;4952458;28;19937;-72
2022/06/30 12:46:18;;;;;;;;;;;31.90;92.50;;;;;;4934502;29;19926;-73
2022/06/30 12:48:48;;;;;;;;;;;31.90;91.50;;;;;;4936727;29;20302;-72
2022/06/30 12:51:28;;;;;;;;;;;31.90;91.10;;;;;;4942314;29;19927;-71
2022/06/30 12:54:04;;;;;;;;;;;32.00;91.00;;;;;;4946439;28;19929;-70
2022/06/30 12:56:36;;;;;;;;;;;32.10;91.60;;;;;;4950194;28;20022;-71
2022/06/30 12:59:08;;;;;;;;;;;32.30;91.40;;;;;;4925429;29;19933;-71
2022/06/30 13:01:44;;;;;;;;;;;32.50;90.30;;;;;;4936109;29;19983;-71
2022/06/30 13:04:16;;;;;;;;;;;32.60;88.40;;;;;;4936290;29;19927;-71
2022/06/30 13:06:48;;;;;;;;;;;32.60;89.50;;;;;;4934483;28;19931;-72
2022/06/30 13:09:22;;;;;;;;;;;32.70;88.30;;;;;;4901663;28;19934;-72
2022/06/30 13:11:58;;;;;;;;;;;32.40;86.90;;;;;;4902182;28;20102;-72
2022/06/30 13:14:26;;;;;;;;;;;32.20;89.00;;;;;;4932454;28;20006;-72
2022/06/30 13:17:00;;;;;;;;;;;32.10;88.00;;;;;;4928928;28;19977;-72
2022/06/30 13:19:31;;;;;;;;;;;32.00;88.10;;;;;;4941197;29;19926;-72
2022/06/30 13:22:03;;;;;;;;;;;31.90;87.20;;;;;;4951748;28;20029;-72
2022/06/30 13:24:30;;;;;;;;;;;32.10;88.20;;;;;;4937013;29;19923;-72
2022/06/30 13:27:03;;;;;;;;;;;32.40;87.20;;;;;;4952654;28;19958;-72
2022/06/30 13:29:35;;;;;;;;;;;32.60;86.40;;;;;;4948232;28;20017;-72
2022/06/30 13:32:07;;;;;;;;;;;32.70;83.80;;;;;;4937033;29;19926;-72
2022/06/30 13:34:39;;;;;;;;;;;32.80;80.90;;;;;;4952064;28;19938;-71
2022/06/30 13:37:10;;;;;;;;;;;33.10;82.20;;;;;;4950964;28;19922;-72
2022/06/30 13:39:42;;;;;;;;;;;33.30;80.80;;;;;;4949850;28;20049;-72
2022/06/30 13:42:13;;;;;;;;;;;33.50;81.10;;;;;;4934396;29;19922;-72
2022/06/30 13:44:45;;;;;;;;;;;33.70;79.80;;;;;;4931005;29;19923;-72
2022/06/30 13:47:17;;;;;;;;;;;33.70;76.90;;;;;;4933002;29;19962;-72
2022/06/30 13:49:48;;;;;;;;;;;33.80;77.40;;;;;;4948492;28;19974;-72
2022/06/30 13:52:20;;;;;;;;;;;33.90;76.70;;;;;;4938356;29;20299;-72
2022/06/30 13:54:54;;;;;;;;;;;34.10;77.00;;;;;;4924677;29;19953;-73
2022/06/30 13:57:26;;;;;;;;;;;34.10;73.70;;;;;;4934808;29;19923;-73
2022/06/30 13:59:58;;;;;;;;;;;33.90;74.70;;;;;;4927351;29;20402;-73
2022/06/30 14:02:33;;;;;;;;;;;33.80;73.20;;;;;;4939840;28;19922;-72
2022/06/30 14:05:00;;;;;;;;;;;34.10;76.10;;;;;;4935393;29;20765;-73
2022/06/30 14:07:32;;;;;;;;;;;34.30;74.10;;;;;;4935409;29;20061;-72
2022/06/30 14:09:59;;;;;;;;;;;34.50;74.70;;;;;;4932318;29;20379;-72
2022/06/30 14:12:30;;;;;;;;;;;34.60;72.40;;;;;;4938539;28;19922;-73
2022/06/30 14:15:02;;;;;;;;;;;34.80;72.70;;;;;;4944145;28;19937;-73
2022/06/30 14:17:34;;;;;;;;;;;34.90;73.70;;;;;;4949403;28;19927;-73
2022/06/30 14:20:01;;;;;;;;;;;34.80;72.20;;;;;;4939986;29;19933;-72
2022/06/30 14:22:34;;;;;;;;;;;34.50;72.20;;;;;;4933390;29;19934;-72
2022/06/30 14:25:07;;;;;;;;;;;34.00;72.90;;;;;;4932681;28;20375;-72
2022/06/30 14:27:39;;;;;;;;;;;33.50;73.10;;;;;;4939525;29;19923;-72
2022/06/30 14:30:07;;;;;;;;;;;33.30;77.00;;;;;;4917549;29;19929;-72
2022/06/30 14:32:40;;;;;;;;;;;33.10;76.80;;;;;;4935667;29;19960;-72
2022/06/30 14:35:11;;;;;;;;;;;32.80;75.90;;;;;;4925630;29;19954;-72
2022/06/30 14:37:43;;;;;;;;;;;32.60;78.00;;;;;;4929952;29;19961;-72
2022/06/30 14:40:10;;;;;;;;;;;32.40;77.60;;;;;;4935759;29;20653;-73
2022/06/30 14:42:43;;;;;;;;;;;32.30;77.80;;;;;;4939776;29;19923;-72
2022/06/30 14:45:18;;;;;;;;;;;31.90;79.60;;;;;;4930748;29;19927;-72
2022/06/30 14:47:51;;;;;;;;;;;31.60;80.40;;;;;;4947543;28;19961;-72
2022/06/30 14:50:23;;;;;;;;;;;31.50;80.50;;;;;;4945090;28;19929;-72
2022/06/30 14:52:55;;;;;;;;;;;31.40;81.50;;;;;;4934940;29;19922;-72
2022/06/30 14:55:21;;;;;;;;;;;31.30;82.30;;;;;;4925177;29;19927;-72